sensor_id;sensor_type;location;lat;lon;timestamp;temperature;humidity
11617;DHT22;5864;52.998;9.068;2023-06-22T00:01:29;20.90;1.00
11617;DHT22;5864;52.998;9.068;2023-06-22T00:04:15;20.90;1.00
11617;DHT22;5864;52.998;9.068;2023-06-22T00:07:00;20.80;1.00
11617;DHT22;5864;52.998;9.068;2023-06-22T00:09:46;20.80;1.00
11617;DHT22;5864;52.998;9.068;2023-06-22T00:12:32;20.80;1.00
11617;DHT22;5864;52.998;9.068;2023-06-22T00:15:19;20.70;1.00
11617;DHT22;5864;52.998;9.068;2023-06-22T00:18:05;20.70;1.00
11617;DHT22;5864;52.998;9.068;2023-06-22T00:20:51;20.70;1.00
11617;DHT22;5864;52.998;9.068;2023-06-22T00:23:40;20.70;1.00
11617;DHT22;5864;52.998;9.068;2023-06-22T00:26:26;20.60;1.00
11617;DHT22;5864;52.998;9.068;2023-06-22T00:29:11;20.60;1.00
11617;DHT22;5864;52.998;9.068;2023-06-22T00:31:58;20.60;1.00
11617;DHT22;5864;52.998;9.068;2023-06-22T00:34:44;20.50;1.00
11617;DHT22;5864;52.998;9.068;2023-06-22T00:37:30;20.50;1.00
11617;DHT22;5864;52.998;9.068;2023-06-22T00:40:15;20.60;1.00
11617;DHT22;5864;52.998;9.068;2023-06-22T00:43:05;20.50;1.00
11617;DHT22;5864;52.998;9.068;2023-06-22T00:45:51;20.50;1.00
11617;DHT22;5864;52.998;9.068;2023-06-22T00:48:38;20.40;1.00
11617;DHT22;5864;52.998;9.068;2023-06-22T00:51:26;20.40;1.00
11617;DHT22;5864;52.998;9.068;2023-06-22T00:54:11;20.40;1.00
11617;DHT22;5864;52.998;9.068;2023-06-22T00:56:58;20.30;1.00
11617;DHT22;5864;52.998;9.068;2023-06-22T00:59:44;20.20;1.00
11617;DHT22;5864;52.998;9.068;2023-06-22T01:02:29;20.20;1.00
11617;DHT22;5864;52.998;9.068;2023-06-22T01:05:18;20.20;1.00
11617;DHT22;5864;52.998;9.068;2023-06-22T01:08:08;20.20;1.00
11617;DHT22;5864;52.998;9.068;2023-06-22T01:11:01;20.20;1.00
11617;DHT22;5864;52.998;9.068;2023-06-22T01:13:52;20.10;1.00
11617;DHT22;5864;52.998;9.068;2023-06-22T01:16:44;20.10;1.00
11617;DHT22;5864;52.998;9.068;2023-06-22T01:19:37;20.00;1.00
11617;DHT22;5864;52.998;9.068;2023-06-22T01:22:30;19.90;1.00
11617;DHT22;5864;52.998;9.068;2023-06-22T01:25:21;19.90;1.00
11617;DHT22;5864;52.998;9.068;2023-06-22T01:28:23;20.00;1.00
11617;DHT22;5864;52.998;9.068;2023-06-22T01:31:14;19.90;1.00
11617;DHT22;5864;52.998;9.068;2023-06-22T01:34:03;20.00;1.00
11617;DHT22;5864;52.998;9.068;2023-06-22T01:36:49;19.90;1.00
11617;DHT22;5864;52.998;9.068;2023-06-22T01:39:35;19.80;1.00
11617;DHT22;5864;52.998;9.068;2023-06-22T01:42:22;19.60;1.00
11617;DHT22;5864;52.998;9.068;2023-06-22T01:45:10;19.70;1.00
11617;DHT22;5864;52.998;9.068;2023-06-22T01:47:57;19.70;1.00
11617;DHT22;5864;52.998;9.068;2023-06-22T01:50:43;19.60;1.00
11617;DHT22;5864;52.998;9.068;2023-06-22T01:53:28;19.60;1.00
11617;DHT22;5864;52.998;9.068;2023-06-22T01:56:16;19.50;1.00
11617;DHT22;5864;52.998;9.068;2023-06-22T01:59:07;19.40;1.00
11617;DHT22;5864;52.998;9.068;2023-06-22T02:01:59;19.30;1.00
11617;DHT22;5864;52.998;9.068;2023-06-22T02:04:54;19.20;1.00
11617;DHT22;5864;52.998;9.068;2023-06-22T02:07:46;19.20;1.00
11617;DHT22;5864;52.998;9.068;2023-06-22T02:10:34;19.20;1.00
11617;DHT22;5864;52.998;9.068;2023-06-22T02:13:23;19.30;1.00
11617;DHT22;5864;52.998;9.068;2023-06-22T02:16:09;19.30;1.00
11617;DHT22;5864;52.998;9.068;2023-06-22T02:18:55;19.30;1.00
11617;DHT22;5864;52.998;9.068;2023-06-22T02:21:48;19.20;1.00
11617;DHT22;5864;52.998;9.068;2023-06-22T02:24:34;19.20;1.00
11617;DHT22;5864;52.998;9.068;2023-06-22T02:27:19;19.20;1.00
11617;DHT22;5864;52.998;9.068;2023-06-22T02:30:06;19.10;1.00
11617;DHT22;5864;52.998;9.068;2023-06-22T02:32:52;19.00;1.00
11617;DHT22;5864;52.998;9.068;2023-06-22T02:35:42;18.90;1.00
11617;DHT22;5864;52.998;9.068;2023-06-22T02:38:34;18.90;1.00
11617;DHT22;5864;52.998;9.068;2023-06-22T02:41:20;19.00;1.00
11617;DHT22;5864;52.998;9.068;2023-06-22T02:44:05;19.00;1.00
11617;DHT22;5864;52.998;9.068;2023-06-22T02:46:51;18.90;1.00
11617;DHT22;5864;52.998;9.068;2023-06-22T02:49:38;18.90;1.00
11617;DHT22;5864;52.998;9.068;2023-06-22T02:52:23;18.90;1.00
11617;DHT22;5864;52.998;9.068;2023-06-22T02:55:11;18.90;1.00
11617;DHT22;5864;52.998;9.068;2023-06-22T02:57:56;18.80;1.00
11617;DHT22;5864;52.998;9.068;2023-06-22T03:00:44;18.80;1.00
11617;DHT22;5864;52.998;9.068;2023-06-22T03:03:29;18.70;5.70
11617;DHT22;5864;52.998;9.068;2023-06-22T03:06:15;18.60;14.00
11617;DHT22;5864;52.998;9.068;2023-06-22T03:09:02;18.60;10.60
11617;DHT22;5864;52.998;9.068;2023-06-22T03:11:49;18.70;4.40
11617;DHT22;5864;52.998;9.068;2023-06-22T03:14:35;18.80;3.00
11617;DHT22;5864;52.998;9.068;2023-06-22T03:17:21;18.80;1.00
11617;DHT22;5864;52.998;9.068;2023-06-22T03:20:07;18.80;1.00
11617;DHT22;5864;52.998;9.068;2023-06-22T03:22:55;18.70;1.00
11617;DHT22;5864;52.998;9.068;2023-06-22T03:25:41;18.70;1.00
11617;DHT22;5864;52.998;9.068;2023-06-22T03:28:30;18.70;1.00
11617;DHT22;5864;52.998;9.068;2023-06-22T03:31:15;18.60;1.00
11617;DHT22;5864;52.998;9.068;2023-06-22T03:34:05;18.50;12.00
11617;DHT22;5864;52.998;9.068;2023-06-22T03:36:51;18.60;2.50
11617;DHT22;5864;52.998;9.068;2023-06-22T03:39:37;18.60;1.00
11617;DHT22;5864;52.998;9.068;2023-06-22T03:42:22;18.70;1.00
11617;DHT22;5864;52.998;9.068;2023-06-22T03:45:10;18.70;1.00
11617;DHT22;5864;52.998;9.068;2023-06-22T03:47:56;18.70;1.00
11617;DHT22;5864;52.998;9.068;2023-06-22T03:50:41;18.70;1.00
11617;DHT22;5864;52.998;9.068;2023-06-22T03:53:28;18.80;1.00
11617;DHT22;5864;52.998;9.068;2023-06-22T03:56:13;18.70;1.00
11617;DHT22;5864;52.998;9.068;2023-06-22T03:59:04;18.80;1.00
11617;DHT22;5864;52.998;9.068;2023-06-22T04:01:51;18.70;1.00
11617;DHT22;5864;52.998;9.068;2023-06-22T04:04:36;18.70;1.00
11617;DHT22;5864;52.998;9.068;2023-06-22T04:07:23;18.90;1.00
11617;DHT22;5864;52.998;9.068;2023-06-22T04:10:09;18.90;1.00
11617;DHT22;5864;52.998;9.068;2023-06-22T04:12:54;18.90;1.00
11617;DHT22;5864;52.998;9.068;2023-06-22T04:15:40;18.90;1.00
11617;DHT22;5864;52.998;9.068;2023-06-22T04:18:27;18.90;1.00
11617;DHT22;5864;52.998;9.068;2023-06-22T04:21:14;18.90;1.00
11617;DHT22;5864;52.998;9.068;2023-06-22T04:23:59;19.00;1.00
11617;DHT22;5864;52.998;9.068;2023-06-22T04:26:45;18.90;1.00
11617;DHT22;5864;52.998;9.068;2023-06-22T04:29:31;18.80;1.00
11617;DHT22;5864;52.998;9.068;2023-06-22T04:32:17;18.70;2.10
11617;DHT22;5864;52.998;9.068;2023-06-22T04:35:05;18.80;1.00
11617;DHT22;5864;52.998;9.068;2023-06-22T04:37:53;18.90;1.00
11617;DHT22;5864;52.998;9.068;2023-06-22T04:40:40;19.10;1.00
11617;DHT22;5864;52.998;9.068;2023-06-22T04:43:25;19.10;1.00
11617;DHT22;5864;52.998;9.068;2023-06-22T04:46:14;19.20;1.00
11617;DHT22;5864;52.998;9.068;2023-06-22T04:49:00;19.10;1.00
11617;DHT22;5864;52.998;9.068;2023-06-22T04:51:47;19.10;1.00
11617;DHT22;5864;52.998;9.068;2023-06-22T04:54:33;19.00;1.00
11617;DHT22;5864;52.998;9.068;2023-06-22T04:57:19;19.00;1.00
11617;DHT22;5864;52.998;9.068;2023-06-22T05:00:08;19.20;1.00
11617;DHT22;5864;52.998;9.068;2023-06-22T05:02:57;19.10;1.00
11617;DHT22;5864;52.998;9.068;2023-06-22T05:05:43;19.00;1.00
11617;DHT22;5864;52.998;9.068;2023-06-22T05:08:29;19.10;1.00
11617;DHT22;5864;52.998;9.068;2023-06-22T05:11:15;19.10;1.00
11617;DHT22;5864;52.998;9.068;2023-06-22T05:14:01;19.20;1.00
11617;DHT22;5864;52.998;9.068;2023-06-22T05:16:46;19.40;1.00
11617;DHT22;5864;52.998;9.068;2023-06-22T05:19:32;19.40;1.00
11617;DHT22;5864;52.998;9.068;2023-06-22T05:22:18;19.40;1.00
11617;DHT22;5864;52.998;9.068;2023-06-22T05:25:08;19.40;1.00
11617;DHT22;5864;52.998;9.068;2023-06-22T05:27:54;19.70;1.00
11617;DHT22;5864;52.998;9.068;2023-06-22T05:30:39;19.90;1.00
11617;DHT22;5864;52.998;9.068;2023-06-22T05:33:25;20.20;1.00
11617;DHT22;5864;52.998;9.068;2023-06-22T05:36:11;20.40;1.00
11617;DHT22;5864;52.998;9.068;2023-06-22T05:38:57;20.60;1.00
11617;DHT22;5864;52.998;9.068;2023-06-22T05:41:45;20.90;1.00
11617;DHT22;5864;52.998;9.068;2023-06-22T05:44:31;21.10;1.00
11617;DHT22;5864;52.998;9.068;2023-06-22T05:47:17;21.20;1.00
11617;DHT22;5864;52.998;9.068;2023-06-22T05:50:04;21.30;1.00
11617;DHT22;5864;52.998;9.068;2023-06-22T05:52:52;21.20;1.00
11617;DHT22;5864;52.998;9.068;2023-06-22T05:55:37;21.40;1.00
11617;DHT22;5864;52.998;9.068;2023-06-22T05:58:24;21.60;1.00
11617;DHT22;5864;52.998;9.068;2023-06-22T06:01:10;21.80;1.00
11617;DHT22;5864;52.998;9.068;2023-06-22T06:03:55;22.00;1.00
11617;DHT22;5864;52.998;9.068;2023-06-22T06:06:41;22.10;99.90
11617;DHT22;5864;52.998;9.068;2023-06-22T06:09:27;22.20;99.90
11617;DHT22;5864;52.998;9.068;2023-06-22T06:12:12;22.20;1.00
11617;DHT22;5864;52.998;9.068;2023-06-22T06:14:59;22.30;99.90
11617;DHT22;5864;52.998;9.068;2023-06-22T06:17:46;22.50;99.90
11617;DHT22;5864;52.998;9.068;2023-06-22T06:20:31;23.00;99.90
11617;DHT22;5864;52.998;9.068;2023-06-22T06:23:17;23.10;1.00
11617;DHT22;5864;52.998;9.068;2023-06-22T06:26:03;23.20;99.90
11617;DHT22;5864;52.998;9.068;2023-06-22T06:28:51;23.40;1.00
11617;DHT22;5864;52.998;9.068;2023-06-22T06:31:38;23.60;1.00
11617;DHT22;5864;52.998;9.068;2023-06-22T06:34:23;24.00;51.40
11617;DHT22;5864;52.998;9.068;2023-06-22T06:37:09;23.90;1.00
11617;DHT22;5864;52.998;9.068;2023-06-22T06:39:54;24.00;1.00
11617;DHT22;5864;52.998;9.068;2023-06-22T06:42:41;23.80;99.90
11617;DHT22;5864;52.998;9.068;2023-06-22T06:45:28;23.80;99.90
11617;DHT22;5864;52.998;9.068;2023-06-22T06:48:16;23.40;1.00
11617;DHT22;5864;52.998;9.068;2023-06-22T06:51:02;23.50;1.00
11617;DHT22;5864;52.998;9.068;2023-06-22T06:53:47;23.30;99.90
11617;DHT22;5864;52.998;9.068;2023-06-22T06:56:33;23.40;99.90
11617;DHT22;5864;52.998;9.068;2023-06-22T06:59:18;23.50;1.00
11617;DHT22;5864;52.998;9.068;2023-06-22T07:02:04;23.70;99.90
11617;DHT22;5864;52.998;9.068;2023-06-22T07:04:51;23.90;1.00
11617;DHT22;5864;52.998;9.068;2023-06-22T07:07:37;24.20;1.00
11617;DHT22;5864;52.998;9.068;2023-06-22T07:10:23;24.30;1.00
11617;DHT22;5864;52.998;9.068;2023-06-22T07:13:08;24.50;1.00
11617;DHT22;5864;52.998;9.068;2023-06-22T07:15:54;24.90;99.90
11617;DHT22;5864;52.998;9.068;2023-06-22T07:18:40;25.40;99.90
11617;DHT22;5864;52.998;9.068;2023-06-22T07:21:27;25.60;1.00
11617;DHT22;5864;52.998;9.068;2023-06-22T07:24:12;25.60;1.00
11617;DHT22;5864;52.998;9.068;2023-06-22T07:26:58;25.70;99.90
11617;DHT22;5864;52.998;9.068;2023-06-22T07:29:44;25.80;99.90
11617;DHT22;5864;52.998;9.068;2023-06-22T07:32:30;25.60;1.00
11617;DHT22;5864;52.998;9.068;2023-06-22T07:35:16;25.40;99.90
11617;DHT22;5864;52.998;9.068;2023-06-22T07:38:03;25.60;99.90
11617;DHT22;5864;52.998;9.068;2023-06-22T07:40:48;25.50;74.10
11617;DHT22;5864;52.998;9.068;2023-06-22T07:43:35;25.70;1.00
11617;DHT22;5864;52.998;9.068;2023-06-22T07:46:22;25.70;1.00
11617;DHT22;5864;52.998;9.068;2023-06-22T07:49:07;25.60;1.00
11617;DHT22;5864;52.998;9.068;2023-06-22T07:51:52;25.80;1.00
11617;DHT22;5864;52.998;9.068;2023-06-22T07:54:39;26.20;99.90
11617;DHT22;5864;52.998;9.068;2023-06-22T07:57:25;26.60;99.90
11617;DHT22;5864;52.998;9.068;2023-06-22T08:00:17;26.70;99.90
11617;DHT22;5864;52.998;9.068;2023-06-22T08:03:02;26.90;99.90
11617;DHT22;5864;52.998;9.068;2023-06-22T08:05:49;27.40;99.90
11617;DHT22;5864;52.998;9.068;2023-06-22T08:08:35;27.70;1.00
11617;DHT22;5864;52.998;9.068;2023-06-22T08:11:22;27.40;1.00
11617;DHT22;5864;52.998;9.068;2023-06-22T08:14:09;26.90;1.00
11617;DHT22;5864;52.998;9.068;2023-06-22T08:16:54;27.40;1.00
11617;DHT22;5864;52.998;9.068;2023-06-22T08:19:40;27.50;1.00
11617;DHT22;5864;52.998;9.068;2023-06-22T08:22:25;28.00;1.00
11617;DHT22;5864;52.998;9.068;2023-06-22T08:25:11;28.30;1.00
11617;DHT22;5864;52.998;9.068;2023-06-22T08:27:59;28.20;1.00
11617;DHT22;5864;52.998;9.068;2023-06-22T08:30:44;28.80;1.00
11617;DHT22;5864;52.998;9.068;2023-06-22T08:33:30;29.10;1.00
11617;DHT22;5864;52.998;9.068;2023-06-22T08:36:15;28.70;1.00
11617;DHT22;5864;52.998;9.068;2023-06-22T08:39:01;28.50;1.00
11617;DHT22;5864;52.998;9.068;2023-06-22T08:41:47;28.80;1.00
11617;DHT22;5864;52.998;9.068;2023-06-22T08:44:35;28.70;1.00
11617;DHT22;5864;52.998;9.068;2023-06-22T08:47:20;29.10;1.00
11617;DHT22;5864;52.998;9.068;2023-06-22T08:50:08;28.60;1.00
11617;DHT22;5864;52.998;9.068;2023-06-22T08:52:54;28.60;1.00
11617;DHT22;5864;52.998;9.068;2023-06-22T08:55:39;28.60;1.00
11617;DHT22;5864;52.998;9.068;2023-06-22T08:58:25;28.30;1.00
11617;DHT22;5864;52.998;9.068;2023-06-22T09:01:12;28.80;1.00
11617;DHT22;5864;52.998;9.068;2023-06-22T09:03:59;29.20;1.00
11617;DHT22;5864;52.998;9.068;2023-06-22T09:06:45;29.40;1.00
11617;DHT22;5864;52.998;9.068;2023-06-22T09:09:30;29.70;1.00
11617;DHT22;5864;52.998;9.068;2023-06-22T09:12:16;29.50;1.00
11617;DHT22;5864;52.998;9.068;2023-06-22T09:15:05;30.30;1.00
11617;DHT22;5864;52.998;9.068;2023-06-22T09:17:52;30.20;1.00
11617;DHT22;5864;52.998;9.068;2023-06-22T09:20:39;30.00;1.00
11617;DHT22;5864;52.998;9.068;2023-06-22T09:23:25;30.40;1.00
11617;DHT22;5864;52.998;9.068;2023-06-22T09:26:10;30.00;1.00
11617;DHT22;5864;52.998;9.068;2023-06-22T09:28:56;30.10;99.90
11617;DHT22;5864;52.998;9.068;2023-06-22T09:31:41;30.50;99.90
11617;DHT22;5864;52.998;9.068;2023-06-22T09:34:30;31.10;99.90
11617;DHT22;5864;52.998;9.068;2023-06-22T09:37:16;31.40;99.90
11617;DHT22;5864;52.998;9.068;2023-06-22T09:40:01;32.10;99.90
11617;DHT22;5864;52.998;9.068;2023-06-22T09:42:51;31.90;99.90
11617;DHT22;5864;52.998;9.068;2023-06-22T09:45:36;31.90;99.90
11617;DHT22;5864;52.998;9.068;2023-06-22T09:48:22;32.20;99.90
11617;DHT22;5864;52.998;9.068;2023-06-22T09:51:09;32.10;99.90
11617;DHT22;5864;52.998;9.068;2023-06-22T09:53:55;31.90;99.90
11617;DHT22;5864;52.998;9.068;2023-06-22T09:56:42;31.70;99.90
11617;DHT22;5864;52.998;9.068;2023-06-22T09:59:27;31.70;99.90
11617;DHT22;5864;52.998;9.068;2023-06-22T10:02:13;31.60;99.90
11617;DHT22;5864;52.998;9.068;2023-06-22T10:04:58;32.10;99.90
11617;DHT22;5864;52.998;9.068;2023-06-22T10:07:45;32.70;99.90
11617;DHT22;5864;52.998;9.068;2023-06-22T10:10:31;32.70;99.90
11617;DHT22;5864;52.998;9.068;2023-06-22T10:13:17;32.40;99.90
11617;DHT22;5864;52.998;9.068;2023-06-22T10:16:04;31.70;99.90
11617;DHT22;5864;52.998;9.068;2023-06-22T10:18:49;31.90;99.90
11617;DHT22;5864;52.998;9.068;2023-06-22T10:21:35;32.00;99.90
11617;DHT22;5864;52.998;9.068;2023-06-22T10:24:22;31.80;99.90
11617;DHT22;5864;52.998;9.068;2023-06-22T10:27:07;31.40;99.90
11617;DHT22;5864;52.998;9.068;2023-06-22T10:29:53;31.30;99.90
11617;DHT22;5864;52.998;9.068;2023-06-22T10:32:39;31.10;99.90
11617;DHT22;5864;52.998;9.068;2023-06-22T10:35:24;30.50;99.90
11617;DHT22;5864;52.998;9.068;2023-06-22T10:38:10;30.60;99.90
11617;DHT22;5864;52.998;9.068;2023-06-22T10:40:57;30.70;99.90
11617;DHT22;5864;52.998;9.068;2023-06-22T10:43:43;30.70;99.90
11617;DHT22;5864;52.998;9.068;2023-06-22T10:46:28;30.20;99.90
11617;DHT22;5864;52.998;9.068;2023-06-22T10:49:14;30.00;99.90
11617;DHT22;5864;52.998;9.068;2023-06-22T10:52:00;29.90;99.90
11617;DHT22;5864;52.998;9.068;2023-06-22T10:54:45;29.70;99.90
11617;DHT22;5864;52.998;9.068;2023-06-22T10:57:32;29.30;99.90
11617;DHT22;5864;52.998;9.068;2023-06-22T11:00:19;29.10;99.90
11617;DHT22;5864;52.998;9.068;2023-06-22T11:03:05;29.30;99.90
11617;DHT22;5864;52.998;9.068;2023-06-22T11:05:50;29.10;99.90
11617;DHT22;5864;52.998;9.068;2023-06-22T11:08:36;29.00;99.90
11617;DHT22;5864;52.998;9.068;2023-06-22T11:11:21;29.20;99.90
11617;DHT22;5864;52.998;9.068;2023-06-22T11:14:08;29.30;99.90
11617;DHT22;5864;52.998;9.068;2023-06-22T11:16:54;29.30;99.90
11617;DHT22;5864;52.998;9.068;2023-06-22T11:19:40;29.20;99.90
11617;DHT22;5864;52.998;9.068;2023-06-22T11:22:26;29.00;99.90
11617;DHT22;5864;52.998;9.068;2023-06-22T11:25:11;28.90;99.90
11617;DHT22;5864;52.998;9.068;2023-06-22T11:27:56;28.90;99.90
11617;DHT22;5864;52.998;9.068;2023-06-22T11:30:43;28.80;99.90
11617;DHT22;5864;52.998;9.068;2023-06-22T11:33:29;28.80;99.90
11617;DHT22;5864;52.998;9.068;2023-06-22T11:36:15;29.00;99.90
11617;DHT22;5864;52.998;9.068;2023-06-22T11:39:01;29.10;99.90
11617;DHT22;5864;52.998;9.068;2023-06-22T11:41:46;29.10;99.90
11617;DHT22;5864;52.998;9.068;2023-06-22T11:44:32;29.00;99.90
11617;DHT22;5864;52.998;9.068;2023-06-22T11:47:19;29.20;99.90
11617;DHT22;5864;52.998;9.068;2023-06-22T11:50:06;29.60;99.90
11617;DHT22;5864;52.998;9.068;2023-06-22T11:52:52;29.70;99.90
11617;DHT22;5864;52.998;9.068;2023-06-22T11:55:37;29.70;99.90
11617;DHT22;5864;52.998;9.068;2023-06-22T11:58:23;29.60;99.90
11617;DHT22;5864;52.998;9.068;2023-06-22T12:01:08;29.30;99.90
11617;DHT22;5864;52.998;9.068;2023-06-22T12:03:55;29.00;99.90
11617;DHT22;5864;52.998;9.068;2023-06-22T12:06:41;28.80;99.90
11617;DHT22;5864;52.998;9.068;2023-06-22T12:09:27;29.00;99.90
11617;DHT22;5864;52.998;9.068;2023-06-22T12:12:13;28.90;99.90
11617;DHT22;5864;52.998;9.068;2023-06-22T12:14:58;28.60;99.90
11617;DHT22;5864;52.998;9.068;2023-06-22T12:17:47;28.80;99.90
11617;DHT22;5864;52.998;9.068;2023-06-22T12:20:35;28.70;99.90
11617;DHT22;5864;52.998;9.068;2023-06-22T12:23:20;28.70;99.90
11617;DHT22;5864;52.998;9.068;2023-06-22T12:26:06;28.60;99.90
11617;DHT22;5864;52.998;9.068;2023-06-22T12:28:53;28.80;99.90
11617;DHT22;5864;52.998;9.068;2023-06-22T12:31:38;28.80;99.90
11617;DHT22;5864;52.998;9.068;2023-06-22T12:34:24;28.70;99.90
11617;DHT22;5864;52.998;9.068;2023-06-22T12:37:11;28.40;99.90
11617;DHT22;5864;52.998;9.068;2023-06-22T12:39:56;28.30;99.90
11617;DHT22;5864;52.998;9.068;2023-06-22T12:42:42;28.30;99.90
11617;DHT22;5864;52.998;9.068;2023-06-22T12:45:27;28.30;99.90
11617;DHT22;5864;52.998;9.068;2023-06-22T12:48:15;28.30;1.00
11617;DHT22;5864;52.998;9.068;2023-06-22T12:51:01;28.10;1.00
11617;DHT22;5864;52.998;9.068;2023-06-22T12:53:49;28.20;1.00
11617;DHT22;5864;52.998;9.068;2023-06-22T12:56:34;28.10;1.00
11617;DHT22;5864;52.998;9.068;2023-06-22T12:59:20;28.00;1.00
11617;DHT22;5864;52.998;9.068;2023-06-22T13:02:06;28.00;1.00
11617;DHT22;5864;52.998;9.068;2023-06-22T13:04:52;28.10;1.00
11617;DHT22;5864;52.998;9.068;2023-06-22T13:07:37;28.10;1.00
11617;DHT22;5864;52.998;9.068;2023-06-22T13:10:24;28.20;1.00
11617;DHT22;5864;52.998;9.068;2023-06-22T13:13:10;28.10;1.00
11617;DHT22;5864;52.998;9.068;2023-06-22T13:15:55;28.30;1.00
11617;DHT22;5864;52.998;9.068;2023-06-22T13:18:40;28.50;1.00
11617;DHT22;5864;52.998;9.068;2023-06-22T13:21:26;28.40;1.00
11617;DHT22;5864;52.998;9.068;2023-06-22T13:24:11;28.30;1.00
11617;DHT22;5864;52.998;9.068;2023-06-22T13:26:58;28.40;1.00
11617;DHT22;5864;52.998;9.068;2023-06-22T13:29:45;28.40;1.00
11617;DHT22;5864;52.998;9.068;2023-06-22T13:32:30;28.30;1.00
11617;DHT22;5864;52.998;9.068;2023-06-22T13:35:16;28.20;1.00
11617;DHT22;5864;52.998;9.068;2023-06-22T13:38:01;27.70;1.00
11617;DHT22;5864;52.998;9.068;2023-06-22T13:40:47;27.80;1.00
11617;DHT22;5864;52.998;9.068;2023-06-22T13:43:34;27.90;1.00
11617;DHT22;5864;52.998;9.068;2023-06-22T13:46:19;27.90;1.00
11617;DHT22;5864;52.998;9.068;2023-06-22T13:49:05;27.80;1.00
11617;DHT22;5864;52.998;9.068;2023-06-22T13:51:51;27.90;1.00
11617;DHT22;5864;52.998;9.068;2023-06-22T13:54:36;27.80;1.00
11617;DHT22;5864;52.998;9.068;2023-06-22T13:57:23;27.60;1.00
11617;DHT22;5864;52.998;9.068;2023-06-22T14:00:10;27.60;1.00
11617;DHT22;5864;52.998;9.068;2023-06-22T14:02:56;27.70;1.00
11617;DHT22;5864;52.998;9.068;2023-06-22T14:05:42;27.60;1.00
11617;DHT22;5864;52.998;9.068;2023-06-22T14:08:27;27.60;1.00
11617;DHT22;5864;52.998;9.068;2023-06-22T14:11:13;27.50;1.00
11617;DHT22;5864;52.998;9.068;2023-06-22T14:13:59;27.40;1.00
11617;DHT22;5864;52.998;9.068;2023-06-22T14:16:46;27.30;1.00
11617;DHT22;5864;52.998;9.068;2023-06-22T14:19:33;27.40;1.00
11617;DHT22;5864;52.998;9.068;2023-06-22T14:22:18;27.50;1.00
11617;DHT22;5864;52.998;9.068;2023-06-22T14:25:05;27.20;43.80
11617;DHT22;5864;52.998;9.068;2023-06-22T14:27:51;27.10;99.90
11617;DHT22;5864;52.998;9.068;2023-06-22T14:30:36;27.10;99.90
11617;DHT22;5864;52.998;9.068;2023-06-22T14:33:23;27.00;99.90
11617;DHT22;5864;52.998;9.068;2023-06-22T14:36:10;26.90;99.90
11617;DHT22;5864;52.998;9.068;2023-06-22T14:38:57;26.80;1.00
11617;DHT22;5864;52.998;9.068;2023-06-22T14:41:43;26.70;1.00
11617;DHT22;5864;52.998;9.068;2023-06-22T14:44:29;26.50;1.00
11617;DHT22;5864;52.998;9.068;2023-06-22T14:47:14;26.40;1.00
11617;DHT22;5864;52.998;9.068;2023-06-22T14:50:04;26.20;85.20
11617;DHT22;5864;52.998;9.068;2023-06-22T14:52:49;26.10;99.90
11617;DHT22;5864;52.998;9.068;2023-06-22T14:55:36;26.10;1.00
11617;DHT22;5864;52.998;9.068;2023-06-22T14:58:21;26.20;1.00
11617;DHT22;5864;52.998;9.068;2023-06-22T15:01:07;26.10;1.00
11617;DHT22;5864;52.998;9.068;2023-06-22T15:03:53;26.00;1.00
11617;DHT22;5864;52.998;9.068;2023-06-22T15:06:39;25.90;99.90
11617;DHT22;5864;52.998;9.068;2023-06-22T15:09:26;25.90;34.80
11617;DHT22;5864;52.998;9.068;2023-06-22T15:12:12;25.90;1.00
11617;DHT22;5864;52.998;9.068;2023-06-22T15:14:58;25.90;99.90
11617;DHT22;5864;52.998;9.068;2023-06-22T15:17:43;25.90;99.90
11617;DHT22;5864;52.998;9.068;2023-06-22T15:20:29;25.70;1.00
11617;DHT22;5864;52.998;9.068;2023-06-22T15:23:16;25.60;1.00
11617;DHT22;5864;52.998;9.068;2023-06-22T15:26:03;25.40;1.00
11617;DHT22;5864;52.998;9.068;2023-06-22T15:28:51;25.20;1.00
11617;DHT22;5864;52.998;9.068;2023-06-22T15:31:36;25.00;1.00
11617;DHT22;5864;52.998;9.068;2023-06-22T15:34:21;24.90;1.00
11617;DHT22;5864;52.998;9.068;2023-06-22T15:37:07;24.80;6.40
11617;DHT22;5864;52.998;9.068;2023-06-22T15:39:54;24.60;45.30
11617;DHT22;5864;52.998;9.068;2023-06-22T15:42:40;23.90;59.00
11617;DHT22;5864;52.998;9.068;2023-06-22T15:45:26;23.70;90.10
11617;DHT22;5864;52.998;9.068;2023-06-22T15:48:11;23.40;93.00
11617;DHT22;5864;52.998;9.068;2023-06-22T15:50:57;23.30;97.60
11617;DHT22;5864;52.998;9.068;2023-06-22T15:53:43;23.20;98.10
11617;DHT22;5864;52.998;9.068;2023-06-22T15:56:29;23.00;99.90
11617;DHT22;5864;52.998;9.068;2023-06-22T15:59:15;23.10;99.90
11617;DHT22;5864;52.998;9.068;2023-06-22T16:02:01;23.20;99.90
11617;DHT22;5864;52.998;9.068;2023-06-22T16:04:46;23.40;99.20
11617;DHT22;5864;52.998;9.068;2023-06-22T16:07:32;23.50;90.30
11617;DHT22;5864;52.998;9.068;2023-06-22T16:10:19;23.60;92.80
11617;DHT22;5864;52.998;9.068;2023-06-22T16:13:05;23.60;93.10
11617;DHT22;5864;52.998;9.068;2023-06-22T16:15:51;23.70;91.90
11617;DHT22;5864;52.998;9.068;2023-06-22T16:18:37;23.70;81.00
11617;DHT22;5864;52.998;9.068;2023-06-22T16:21:25;23.60;99.90
11617;DHT22;5864;52.998;9.068;2023-06-22T16:24:10;23.20;99.90
11617;DHT22;5864;52.998;9.068;2023-06-22T16:26:56;23.10;99.90
11617;DHT22;5864;52.998;9.068;2023-06-22T16:29:43;23.10;99.90
11617;DHT22;5864;52.998;9.068;2023-06-22T16:32:28;23.10;99.90
11617;DHT22;5864;52.998;9.068;2023-06-22T16:35:14;23.20;99.90
11617;DHT22;5864;52.998;9.068;2023-06-22T16:38:00;23.30;99.90
11617;DHT22;5864;52.998;9.068;2023-06-22T16:40:45;23.30;99.90
11617;DHT22;5864;52.998;9.068;2023-06-22T16:43:31;23.00;99.90
11617;DHT22;5864;52.998;9.068;2023-06-22T16:46:18;22.80;99.90
11617;DHT22;5864;52.998;9.068;2023-06-22T16:49:03;22.90;99.90
11617;DHT22;5864;52.998;9.068;2023-06-22T16:51:50;22.80;99.90
11617;DHT22;5864;52.998;9.068;2023-06-22T16:54:35;22.60;99.90
11617;DHT22;5864;52.998;9.068;2023-06-22T16:57:21;22.70;99.90
11617;DHT22;5864;52.998;9.068;2023-06-22T17:00:09;22.70;99.90
11617;DHT22;5864;52.998;9.068;2023-06-22T17:03:00;22.70;99.90
11617;DHT22;5864;52.998;9.068;2023-06-22T17:05:49;22.80;99.90
11617;DHT22;5864;52.998;9.068;2023-06-22T17:08:35;22.70;99.90
11617;DHT22;5864;52.998;9.068;2023-06-22T17:11:21;22.70;99.90
11617;DHT22;5864;52.998;9.068;2023-06-22T17:14:06;22.70;99.90
11617;DHT22;5864;52.998;9.068;2023-06-22T17:16:52;22.90;99.90
11617;DHT22;5864;52.998;9.068;2023-06-22T17:19:38;22.90;99.90
11617;DHT22;5864;52.998;9.068;2023-06-22T17:22:25;22.90;99.90
11617;DHT22;5864;52.998;9.068;2023-06-22T17:25:12;22.80;99.90
11617;DHT22;5864;52.998;9.068;2023-06-22T17:28:00;22.60;99.90
11617;DHT22;5864;52.998;9.068;2023-06-22T17:30:46;22.50;99.90
11617;DHT22;5864;52.998;9.068;2023-06-22T17:33:31;22.40;99.90
11617;DHT22;5864;52.998;9.068;2023-06-22T17:36:18;22.40;99.90
11617;DHT22;5864;52.998;9.068;2023-06-22T17:39:04;22.40;99.90
11617;DHT22;5864;52.998;9.068;2023-06-22T17:41:50;22.40;99.90
11617;DHT22;5864;52.998;9.068;2023-06-22T17:44:36;22.40;99.90
11617;DHT22;5864;52.998;9.068;2023-06-22T17:47:25;22.50;99.90
11617;DHT22;5864;52.998;9.068;2023-06-22T17:50:10;22.50;99.90
11617;DHT22;5864;52.998;9.068;2023-06-22T17:52:57;22.60;99.90
11617;DHT22;5864;52.998;9.068;2023-06-22T17:55:43;22.50;99.90
11617;DHT22;5864;52.998;9.068;2023-06-22T17:58:28;22.40;99.90